Time;durP1;ratioP1;P1;durP2;ratioP2;P2;SDS_P1;SDS_P2;PMS_P1;PMS_P2;Temp;Humidity;BMP_temperature;BMP_pressure;BME280_temperature;BME280_humidity;BME280_pressure;Samples;Min_cycle;Max_cycle;Signal;HPM_P1;HPM_P2
2021/07/20 00:01:30;;;;;;;;;;;;;;;16.46;67.37;102144.31;5075628;28;20107;-37
2021/07/20 00:03:55;;;;;;;14.18;8.75;;;;;;;16.21;69.57;102139.94;5074637;28;19945;-37
2021/07/20 00:06:21;;;;;;;11.85;8.63;;;;;;;16.26;68.77;102128.31;5074355;28;20039;-37
2021/07/20 00:08:46;;;;;;;13.43;9.45;;;;;;;16.08;68.79;102129.25;5074291;28;20020;-37
2021/07/20 00:11:11;;;;;;;16.05;9.30;;;;;;;16.11;68.75;102139.69;5074066;28;20043;-37
2021/07/20 00:13:37;;;;;;;;;;;;;;;16.30;67.95;102137.69;5074914;28;20024;-37
2021/07/20 00:16:03;;;;;;;10.73;8.93;;;;;;;16.24;68.71;102144.06;5074122;28;19955;-37
2021/07/20 00:18:31;;;;;;;12.05;9.82;;;;;;;16.17;69.96;102144.22;5074327;28;20050;-37
2021/07/20 00:20:56;;;;;;;15.23;9.70;;;;;;;15.98;69.22;102142.66;5074332;28;20020;-37
2021/07/20 00:23:22;;;;;;;13.02;9.00;;;;;;;16.15;69.10;102142.78;5074418;28;20033;-37
2021/07/20 00:25:50;;;;;;;12.68;9.50;;;;;;;16.04;69.71;102132.69;5074491;28;20016;-37
2021/07/20 00:28:20;;;;;;;13.45;9.32;;;;;;;16.03;70.17;102144.66;5073816;28;20031;-37
2021/07/20 00:30:47;;;;;;;13.70;9.32;;;;;;;16.06;70.33;102131.41;5074509;28;20425;-37
2021/07/20 00:33:13;;;;;;;12.70;8.98;;;;;;;16.05;70.08;102135.16;5074265;28;20071;-37
2021/07/20 00:35:39;;;;;;;13.00;9.40;;;;;;;15.92;69.92;102129.97;5073825;28;20035;-37
2021/07/20 00:38:04;;;;;;;12.05;9.13;;;;;;;15.83;69.72;102126.75;5073639;28;20016;-37
2021/07/20 00:40:31;;;;;;;15.23;9.93;;;;;;;15.85;70.23;102151.03;5074019;28;20030;-37
2021/07/20 00:42:57;;;;;;;14.02;10.07;;;;;;;15.81;70.81;102149.84;5073856;28;20028;-37
2021/07/20 00:45:22;;;;;;;12.77;9.65;;;;;;;15.73;70.50;102145.56;5074323;28;20109;-37
2021/07/20 00:47:48;;;;;;;14.15;9.43;;;;;;;15.85;70.59;102149.13;5074094;28;20070;-37
2021/07/20 00:50:18;;;;;;;14.50;9.93;;;;;;;15.72;71.38;102145.81;5073928;28;20471;-37
2021/07/20 00:52:44;;;;;;;15.55;9.85;;;;;;;15.64;70.66;102150.53;5073352;28;20024;-37
2021/07/20 00:55:10;;;;;;;17.88;10.07;;;;;;;15.69;70.77;102145.19;5073943;28;20028;-37
2021/07/20 00:57:36;;;;;;;;;;;;;;;15.93;69.00;102148.81;5073881;28;20017;-37
2021/07/20 01:00:05;;;;;;;14.80;9.55;;;;;;;15.74;71.08;102141.78;5074041;28;19987;-37
2021/07/20 01:02:30;;;;;;;15.40;9.77;;;;;;;15.84;70.77;102139.31;5073455;28;20464;-37
2021/07/20 01:04:56;;;;;;;16.07;10.03;;;;;;;15.65;71.38;102140.44;5074014;28;20043;-37
2021/07/20 01:07:22;;;;;;;12.77;9.07;;;;;;;15.49;70.78;102119.28;5073505;28;20250;-37
2021/07/20 01:09:48;;;;;;;;;;;;;;;15.79;69.26;102141.06;5074395;28;20031;-37
2021/07/20 01:12:14;;;;;;;13.85;9.15;;;;;;;15.57;71.35;102138.88;5073617;28;20290;-37
2021/07/20 01:14:41;;;;;;;19.38;10.93;;;;;;;15.53;71.46;102143.13;5073814;28;20021;-37
2021/07/20 01:17:08;;;;;;;14.45;9.68;;;;;;;15.49;72.09;102143.81;5073066;28;20032;-37
2021/07/20 01:19:41;;;;;;;13.05;9.15;;;;;;;15.44;71.40;102137.16;5073221;28;20043;-37
2021/07/20 01:22:11;;;;;;;15.48;10.07;;;;;;;15.42;72.05;102136.56;5072627;28;20369;-37
2021/07/20 01:24:36;;;;;;;13.57;9.50;;;;;;;15.35;71.95;102129.53;5072878;28;20357;-37
2021/07/20 01:27:01;;;;;;;15.20;10.07;;;;;;;15.23;71.83;102117.78;5073550;28;20106;-37
2021/07/20 01:29:28;;;;;;;15.05;10.60;;;;;;;15.38;71.92;102127.19;5072834;28;20031;-37
2021/07/20 01:31:54;;;;;;;15.40;10.63;;;;;;;15.29;72.06;102116.84;5073362;28;20020;-37
2021/07/20 01:34:21;;;;;;;17.30;10.07;;;;;;;15.31;72.56;102128.34;5072991;28;20449;-37
2021/07/20 01:36:48;;;;;;;14.73;10.20;;;;;;;15.34;71.96;102125.16;5073514;28;20033;-37
2021/07/20 01:39:14;;;;;;;14.07;9.90;;;;;;;15.18;73.01;102127.47;5072913;28;20103;-37
2021/07/20 01:41:41;;;;;;;13.77;9.27;;;;;;;15.24;73.15;102125.72;5073257;28;20079;-37
2021/07/20 01:44:10;;;;;;;15.60;10.45;;;;;;;15.10;72.95;102125.06;5072986;28;20052;-37
2021/07/20 01:46:38;;;;;;;13.63;10.57;;;;;;;15.00;73.46;102116.59;5073248;28;20044;-37
2021/07/20 01:49:10;;;;;;;12.95;9.52;;;;;;;15.09;73.46;102133.47;5072608;28;20353;-37
2021/07/20 01:51:37;;;;;;;16.08;9.88;;;;;;;15.05;73.54;102135.00;5072859;28;20025;-37
2021/07/20 01:54:04;;;;;;;14.93;10.57;;;;;;;14.97;73.78;102127.13;5072830;28;20044;-37
2021/07/20 01:56:29;;;;;;;15.63;10.43;;;;;;;15.09;73.70;102136.19;5073126;28;20093;-37
2021/07/20 01:58:55;;;;;;;14.27;10.15;;;;;;;15.00;73.55;102130.22;5073073;28;20013;-37
2021/07/20 02:01:27;;;;;;;15.18;10.65;;;;;;;14.96;74.03;102137.19;5072592;28;20033;-37
2021/07/20 02:09:29;;;;;;;15.70;11.85;;;;;;;14.79;74.37;102139.72;5072987;28;20040;-37
2021/07/20 02:11:55;;;;;;;16.45;10.65;;;;;;;14.70;74.16;102126.63;5072924;28;20021;-37
2021/07/20 02:14:24;;;;;;;15.02;9.57;;;;;;;14.75;74.39;102141.22;5072639;28;20048;-37
2021/07/20 02:16:52;;;;;;;16.42;11.23;;;;;;;14.71;74.41;102145.44;5072694;28;20036;-37
2021/07/20 02:19:33;;;;;;;17.85;10.43;;;;;;;14.61;74.70;102132.38;5072635;28;20104;-37
2021/07/20 02:21:59;;;;;;;16.70;10.65;;;;;;;14.57;74.71;102122.97;5072831;28;20051;-36
2021/07/20 02:24:28;;;;;;;16.17;11.02;;;;;;;14.57;74.96;102135.75;5071393;28;20024;-37
2021/07/20 02:26:54;;;;;;;17.15;10.90;;;;;;;14.66;74.94;102135.25;5073076;28;20059;-37
2021/07/20 02:29:20;;;;;;;;;;;;;;;14.87;73.08;102136.66;5072900;28;20028;-37
2021/07/20 02:31:47;;;;;;;17.63;11.95;;;;;;;14.60;74.87;102138.03;5072746;28;19916;-37
2021/07/20 02:34:15;;;;;;;15.65;10.95;;;;;;;14.53;75.59;102142.72;5074207;28;20028;-37
2021/07/20 02:36:41;;;;;;;16.50;10.85;;;;;;;14.49;75.48;102139.59;5076729;28;20370;-37
2021/07/20 02:39:07;;;;;;;16.88;11.02;;;;;;;14.55;75.37;102149.59;5076150;28;20035;-37
2021/07/20 02:41:34;;;;;;;15.32;11.20;;;;;;;14.35;75.50;102133.47;5075894;28;20464;-37
2021/07/20 02:44:00;;;;;;;;;;;;;;;14.72;73.58;102149.84;5076512;28;20093;-37
2021/07/20 02:46:27;;;;;;;19.48;10.25;;;;;;;14.49;75.42;102153.22;5075433;28;19913;-37
2021/07/20 02:48:53;;;;;;;15.65;10.23;;;;;;;14.45;75.69;102149.28;5075982;28;20583;-36
2021/07/20 02:51:20;;;;;;;18.30;10.40;;;;;;;14.43;75.63;102143.19;5076042;28;20029;-36
2021/07/20 02:53:48;;;;;;;19.10;11.75;;;;;;;14.42;75.87;102150.53;5075907;28;20020;-37
2021/07/20 02:56:14;;;;;;;17.65;11.48;;;;;;;14.27;76.28;102138.34;5075616;28;20483;-37
2021/07/20 02:58:43;;;;;;;15.50;10.50;;;;;;;14.30;75.83;102132.44;5075477;28;20024;-37
2021/07/20 03:01:10;;;;;;;16.73;11.00;;;;;;;14.26;75.94;102132.09;5076093;28;20028;-37
2021/07/20 03:03:36;;;;;;;15.85;11.27;;;;;;;14.40;76.02;102139.06;5075674;28;20024;-37
2021/07/20 03:06:04;;;;;;;18.35;11.52;;;;;;;14.23;76.18;102140.69;5075912;28;20016;-36
2021/07/20 03:08:30;;;;;;;16.73;10.55;;;;;;;14.17;76.17;102139.69;5075394;28;20453;-37
2021/07/20 03:10:58;;;;;;;16.27;11.02;;;;;;;14.26;76.42;102142.13;5076091;28;20028;-37
2021/07/20 03:13:26;;;;;;;17.13;10.98;;;;;;;14.13;76.60;102138.47;5075508;28;20021;-37
2021/07/20 03:15:52;;;;;;;18.52;11.68;;;;;;;14.10;76.61;102146.22;5075895;28;20099;-36
2021/07/20 03:18:19;;;;;;;18.67;12.15;;;;;;;14.08;76.83;102146.47;5076236;28;20117;-36
2021/07/20 03:20:45;;;;;;;14.95;10.75;;;;;;;14.12;76.60;102153.13;5075466;28;20036;-36
2021/07/20 03:23:13;;;;;;;15.45;10.25;;;;;;;14.00;76.89;102149.44;5074549;28;20039;-37
2021/07/20 03:25:38;;;;;;;16.80;11.63;;;;;;;13.88;77.36;102126.75;5074847;28;20145;-37
2021/07/20 03:28:05;;;;;;;18.48;11.95;;;;;;;14.07;77.38;102147.53;5075363;28;20060;-36
2021/07/20 03:30:33;;;;;;;18.63;11.70;;;;;;;13.97;77.54;102149.91;5075274;28;20020;-36
2021/07/20 03:33:01;;;;;;;18.27;11.00;;;;;;;13.92;77.63;102141.59;5073677;28;20042;-36
2021/07/20 03:35:27;;;;;;;20.25;12.10;;;;;;;13.95;77.41;102137.56;5075757;28;20279;-36
2021/07/20 03:37:53;;;;;;;19.48;12.10;;;;;;;13.96;77.42;102145.53;5075138;28;20085;-37
2021/07/20 03:40:19;;;;;;;20.45;12.73;;;;;;;13.92;77.65;102149.75;5075445;28;20025;-36
2021/07/20 03:42:45;;;;;;;18.02;12.13;;;;;;;13.97;77.60;102136.31;5075583;28;20338;-36
2021/07/20 03:45:12;;;;;;;18.63;11.15;;;;;;;14.03;77.79;102142.75;5074339;28;20075;-37
2021/07/20 03:47:41;;;;;;;17.95;12.60;;;;;;;13.96;77.50;102134.66;5074943;28;20032;-37
2021/07/20 03:50:08;;;;;;;22.80;13.57;;;;;;;13.94;77.96;102144.91;5075070;28;20456;-37
2021/07/20 03:52:34;;;;;;;17.27;12.10;;;;;;;14.00;77.91;102140.47;5075464;28;20338;-36
2021/07/20 03:55:00;;;;;;;18.10;12.45;;;;;;;13.80;78.14;102146.06;5074679;28;20107;-36
2021/07/20 03:57:27;;;;;;;;;;;;;;;14.08;75.83;102141.03;5075256;28;20028;-36
2021/07/20 03:59:57;;;;;;;22.38;13.93;;;;;;;13.85;77.72;102144.34;5074954;28;19909;-37
2021/07/20 04:02:25;;;;;;;19.63;11.82;;;;;;;13.89;77.65;102137.41;5075377;28;20024;-36
2021/07/20 04:04:52;;;;;;;21.65;12.95;;;;;;;13.94;78.06;102146.78;5075311;28;20063;-36
2021/07/20 04:07:19;;;;;;;24.65;13.27;;;;;;;13.90;78.14;102144.50;5075203;28;20056;-36
2021/07/20 04:09:45;;;;;;;21.63;13.15;;;;;;;13.98;77.97;102140.69;5074286;28;20031;-36
2021/07/20 04:12:15;;;;;;;20.90;12.82;;;;;;;13.98;77.93;102140.69;5075258;28;20107;-37
2021/07/20 04:14:44;;;;;;;23.08;14.05;;;;;;;13.82;77.96;102125.78;5074731;28;20363;-36
2021/07/20 04:17:11;;;;;;;24.55;13.65;;;;;;;13.99;77.99;102142.34;5074436;28;20028;-36
2021/07/20 04:19:36;;;;;;;20.33;13.07;;;;;;;13.91;78.63;102148.09;5074310;28;20056;-37
2021/07/20 04:22:03;;;;;;;21.42;13.13;;;;;;;13.98;78.05;102140.69;5074666;28;20056;-36
2021/07/20 04:24:29;;;;;;;20.17;12.68;;;;;;;14.00;78.02;102137.75;5074559;28;20036;-36
2021/07/20 04:26:55;;;;;;;21.10;13.02;;;;;;;13.98;78.05;102139.88;5074709;28;20074;-37
2021/07/20 04:29:22;;;;;;;18.92;13.20;;;;;;;14.02;78.13;102136.47;5074208;28;20066;-36
2021/07/20 04:31:49;;;;;;;20.27;12.27;;;;;;;13.91;79.06;102150.81;5074783;28;20024;-37
2021/07/20 04:34:16;;;;;;;22.38;13.23;;;;;;;13.94;78.33;102155.78;5073987;28;20060;-36
2021/07/20 04:36:42;;;;;;;20.88;12.43;;;;;;;14.04;78.43;102147.97;5073696;28;20025;-37
2021/07/20 04:39:09;;;;;;;22.40;13.30;;;;;;;13.97;78.68;102155.34;5073674;28;20051;-36
2021/07/20 04:41:36;;;;;;;20.08;12.73;;;;;;;13.98;78.47;102151.56;5074633;28;20050;-36
2021/07/20 04:44:01;;;;;;;22.55;13.80;;;;;;;14.11;78.33;102151.47;5073917;28;20032;-36
2021/07/20 04:46:27;;;;;;;22.73;14.00;;;;;;;14.03;78.03;102138.13;5074591;28;20041;-36
2021/07/20 04:48:53;;;;;;;20.27;13.00;;;;;;;14.11;78.73;102145.19;5073780;28;20278;-37
2021/07/20 04:51:18;;;;;;;16.92;12.27;;;;;;;14.21;78.16;102156.41;5074370;28;20361;-37
2021/07/20 04:53:44;;;;;;;21.65;13.10;;;;;;;14.13;78.40;102149.34;5073647;28;20346;-37
2021/07/20 04:56:10;;;;;;;24.08;14.20;;;;;;;14.26;78.13;102161.19;5072349;28;20028;-37
2021/07/20 04:58:35;;;;;;;22.92;13.82;;;;;;;14.35;78.41;102159.84;5072062;28;20060;-37
2021/07/20 05:01:02;;;;;;;23.08;14.02;;;;;;;14.41;78.15;102161.66;5073686;28;20028;-36
2021/07/20 05:03:31;;;;;;;19.02;13.23;;;;;;;14.49;77.89;102166.00;5073363;28;20048;-37
2021/07/20 05:05:57;;;;;;;22.23;13.88;;;;;;;14.44;77.38;102155.75;5073428;28;20092;-36
2021/07/20 05:08:26;;;;;;;19.15;13.20;;;;;;;14.65;77.68;102162.69;5073297;28;20039;-37
2021/07/20 05:10:53;;;;;;;21.63;13.73;;;;;;;14.64;77.06;102164.59;5074071;28;20075;-36
2021/07/20 05:13:20;;;;;;;20.90;13.07;;;;;;;14.70;76.78;102157.41;5073239;28;20413;-37
2021/07/20 05:15:56;;;;;;;19.85;14.00;;;;;;;14.67;76.23;102147.78;5073322;28;20174;-37
2021/07/20 05:18:22;;;;;;;21.55;13.50;;;;;;;14.75;75.00;102168.44;5073254;28;20125;-37
2021/07/20 05:20:50;;;;;;;20.48;13.73;;;;;;;14.64;77.04;102152.84;5073472;28;20117;-37
2021/07/20 05:23:18;;;;;;;20.10;12.95;;;;;;;14.81;76.10;102166.69;5073319;28;20055;-36
2021/07/20 05:25:47;;;;;;;21.58;13.82;;;;;;;14.90;75.73;102171.63;5073184;28;20099;-37
2021/07/20 05:28:14;;;;;;;21.55;14.55;;;;;;;14.90;75.52;102170.78;5073113;28;20027;-36
2021/07/20 05:30:41;;;;;;;20.02;13.70;;;;;;;14.97;75.52;102159.81;5073280;28;20085;-37
2021/07/20 05:33:07;;;;;;;22.40;14.52;;;;;;;14.92;75.86;102155.88;5073373;28;20030;-37
2021/07/20 05:35:34;;;;;;;;;;;;;;;15.29;74.96;102169.47;5073263;28;20059;-37
2021/07/20 05:38:00;;;;;;;23.08;13.73;;;;;;;15.17;74.71;102169.38;5073099;28;19904;-37
2021/07/20 05:40:25;;;;;;;19.85;13.43;;;;;;;15.18;74.40;102168.34;5073094;28;20029;-36
2021/07/20 05:42:52;;;;;;;21.77;13.98;;;;;;;15.17;75.13;102172.09;5072999;28;20025;-37
2021/07/20 05:45:18;;;;;;;20.85;14.20;;;;;;;15.40;74.52;102168.66;5073081;28;20036;-37
2021/07/20 05:47:49;;;;;;;21.23;13.82;;;;;;;15.25;73.84;102153.78;5073503;28;20100;-37
2021/07/20 05:50:16;;;;;;;19.48;13.90;;;;;;;15.53;73.70;102175.84;5072852;28;20487;-37
2021/07/20 05:52:44;;;;;;;20.15;12.90;;;;;;;15.62;72.87;102177.19;5072935;28;20406;-36
2021/07/20 05:55:12;;;;;;;20.02;13.20;;;;;;;15.58;72.25;102184.16;5073270;28;20090;-37
2021/07/20 05:57:47;;;;;;;21.50;13.88;;;;;;;15.55;72.08;102183.78;5073191;28;20342;-37
2021/07/20 06:00:14;;;;;;;21.08;13.55;;;;;;;15.61;72.00;102172.75;5073654;28;20043;-37
2021/07/20 06:02:43;;;;;;;21.55;12.98;;;;;;;15.62;71.54;102185.34;5072877;28;20038;-37
2021/07/20 06:05:13;;;;;;;19.58;12.63;;;;;;;15.63;71.24;102180.72;5073130;28;20029;-37
2021/07/20 06:07:39;;;;;;;23.45;13.85;;;;;;;15.66;71.50;102174.81;5073231;28;20411;-37
2021/07/20 06:10:05;;;;;;;20.77;12.35;;;;;;;15.64;70.48;102172.34;5076221;28;20107;-37
2021/07/20 06:12:32;;;;;;;18.35;12.95;;;;;;;15.87;70.58;102178.94;5077368;28;20012;-37
2021/07/20 06:14:59;;;;;;;17.90;12.55;;;;;;;15.90;71.37;102171.09;5077522;28;20052;-37
2021/07/20 06:17:25;;;;;;;24.40;13.50;;;;;;;15.90;71.29;102176.53;5076628;28;20103;-37
2021/07/20 06:19:51;;;;;;;20.48;13.13;;;;;;;16.03;71.31;102183.69;5076968;28;20112;-37
2021/07/20 06:22:22;;;;;;;23.33;12.57;;;;;;;15.95;70.44;102168.50;5076211;28;20100;-37
2021/07/20 06:24:48;;;;;;;17.75;12.45;;;;;;;16.18;69.84;102178.63;5076780;28;20453;-37
2021/07/20 06:27:15;;;;;;;18.52;13.32;;;;;;;16.28;68.54;102183.47;5076302;28;20013;-37
2021/07/20 06:29:43;;;;;;;16.83;12.32;;;;;;;16.20;68.32;102181.94;5076923;28;20107;-37
2021/07/20 06:32:10;;;;;;;20.30;12.48;;;;;;;16.40;68.78;102184.34;5076832;28;20024;-37
2021/07/20 06:34:38;;;;;;;18.73;13.15;;;;;;;16.38;68.97;102181.00;5076382;28;20027;-37
2021/07/20 06:37:04;;;;;;;18.27;12.45;;;;;;;16.31;67.85;102177.56;5076247;28;20377;-37
2021/07/20 06:39:30;;;;;;;17.08;11.93;;;;;;;16.46;69.21;102190.75;5075189;28;20047;-37
2021/07/20 06:41:58;;;;;;;17.50;12.00;;;;;;;16.51;68.86;102193.59;5076416;28;20102;-37
2021/07/20 06:44:23;;;;;;;16.63;11.85;;;;;;;16.62;68.99;102192.75;5076230;28;20028;-37
2021/07/20 06:46:50;;;;;;;17.33;11.48;;;;;;;16.80;68.90;102191.81;5076005;28;20412;-36
2021/07/20 06:49:18;;;;;;;20.25;12.20;;;;;;;16.75;68.41;102164.38;5075749;28;20131;-37
2021/07/20 06:51:43;;;;;;;20.05;10.77;;;;;;;16.88;65.87;102190.59;5076328;28;20430;-37
2021/07/20 06:54:08;;;;;;;18.75;12.15;;;;;;;16.86;66.61;102188.09;5076015;28;20103;-37
2021/07/20 06:56:36;;;;;;;;;;;;;;;17.09;67.20;102200.91;5076518;28;20024;-37
2021/07/20 06:59:03;;;;;;;17.13;11.20;;;;;;;17.02;67.60;102199.38;5075985;28;19908;-37
2021/07/20 07:01:31;;;;;;;15.43;10.70;;;;;;;16.76;65.63;102173.41;5076093;28;20468;-37
2021/07/20 07:04:08;;;;;;;18.00;12.68;;;;;;;16.82;66.72;102186.94;5075807;28;20020;-37
2021/07/20 07:06:36;;;;;;;;;;;;;;;17.05;67.12;102199.72;5076411;28;20447;-37
2021/07/20 07:09:02;;;;;;;18.42;11.10;;;;;;;16.89;67.68;102193.09;5076282;28;19959;-37
2021/07/20 07:11:28;;;;;;;17.90;11.32;;;;;;;16.77;67.29;102180.53;5076002;28;20036;-37
2021/07/20 07:13:55;;;;;;;18.67;12.13;;;;;;;16.81;65.58;102195.38;5076254;28;20073;-37
2021/07/20 07:16:22;;;;;;;14.60;11.20;;;;;;;16.58;65.20;102179.78;5075547;28;20030;-37
2021/07/20 07:18:48;;;;;;;20.40;10.88;;;;;;;16.80;64.67;102202.75;5075694;28;20028;-36
2021/07/20 07:21:14;;;;;;;;;;;;;;;16.94;65.74;102209.59;5075911;28;20392;-37
2021/07/20 07:23:41;;;;;;;15.57;11.07;;;;;;;17.01;66.40;102203.16;5075320;28;20352;-37
2021/07/20 07:26:08;;;;;;;15.75;10.70;;;;;;;17.16;66.26;102206.22;5075976;28;20602;-36
2021/07/20 07:28:35;;;;;;;16.35;11.13;;;;;;;17.17;65.39;102205.16;5075358;28;20094;-36
2021/07/20 07:31:01;;;;;;;16.50;11.10;;;;;;;17.09;65.33;102205.53;5075479;28;20021;-37
2021/07/20 07:33:26;;;;;;;15.30;10.90;;;;;;;17.29;65.65;102203.22;5075314;28;20032;-37
2021/07/20 07:35:53;;;;;;;17.27;11.48;;;;;;;17.33;65.21;102204.41;5075135;28;20419;-36
2021/07/20 07:38:19;;;;;;;18.20;12.20;;;;;;;17.34;66.97;102205.22;5075802;28;20024;-36
2021/07/20 07:40:53;;;;;;;18.75;11.43;;;;;;;17.18;66.03;102210.38;5075737;28;20032;-37
2021/07/20 07:43:20;;;;;;;14.52;10.23;;;;;;;17.24;63.43;102208.59;5075239;28;20021;-37
2021/07/20 07:45:48;;;;;;;15.95;10.65;;;;;;;17.32;63.67;102207.34;5075195;28;20044;-34
2021/07/20 07:48:14;;;;;;;15.52;10.07;;;;;;;17.52;63.60;102218.72;5074975;28;20407;-34
2021/07/20 07:50:39;;;;;;;16.00;10.13;;;;;;;17.44;62.74;102213.63;5074689;28;20036;-34
2021/07/20 07:53:05;;;;;;;14.27;10.80;;;;;;;17.62;63.85;102215.34;5074899;28;20440;-34
2021/07/20 07:55:31;;;;;;;;;;;;;;;17.80;64.07;102222.53;5076058;28;20029;-34
2021/07/20 07:57:57;;;;;;;15.88;10.23;;;;;;;17.80;62.14;102217.06;5075352;28;19912;-34
2021/07/20 08:00:27;;;;;;;17.42;10.13;;;;;;;17.79;62.31;102216.22;5075277;28;20059;-34
2021/07/20 08:02:55;;;;;;;18.52;12.13;;;;;;;17.81;63.28;102207.75;5074667;28;20031;-34
2021/07/20 08:05:23;;;;;;;16.27;10.65;;;;;;;18.07;63.89;102220.81;5074982;28;20028;-34
2021/07/20 08:07:49;;;;;;;15.15;10.80;;;;;;;18.09;62.24;102215.09;5074709;28;20027;-34
2021/07/20 08:10:17;;;;;;;15.48;11.15;;;;;;;18.08;63.16;102218.91;5074557;28;20104;-34
2021/07/20 08:12:46;;;;;;;14.23;10.90;;;;;;;18.02;63.26;102220.75;5075279;28;20035;-34
2021/07/20 08:15:15;;;;;;;15.55;11.13;;;;;;;18.04;61.64;102209.53;5074204;28;20059;-34
2021/07/20 08:17:42;;;;;;;17.15;11.55;;;;;;;18.14;62.09;102218.75;5075019;28;20052;-34
2021/07/20 08:20:09;;;;;;;15.15;10.18;;;;;;;18.24;61.27;102216.16;5075001;28;20024;-34
2021/07/20 08:22:35;;;;;;;14.07;10.13;;;;;;;18.35;60.93;102219.94;5074785;28;20023;-34
2021/07/20 08:25:03;;;;;;;;;;;;;;;18.59;61.75;102216.97;5074997;28;20040;-34
2021/07/20 08:27:36;;;;;;;14.85;9.35;;;;;;;18.46;60.67;102202.56;5074000;28;20003;-35
2021/07/20 08:30:04;;;;;;;13.77;10.10;;;;;;;18.49;60.23;102217.66;5074158;28;20021;-34
2021/07/20 08:32:33;;;;;;;17.50;10.70;;;;;;;18.59;60.31;102220.53;5073287;28;20024;-34
2021/07/20 08:35:05;;;;;;;14.57;10.60;;;;;;;18.58;58.77;102207.09;5074135;28;20085;-34
2021/07/20 08:37:33;;;;;;;13.18;10.73;;;;;;;18.77;59.95;102209.34;5074122;28;20464;-34
2021/07/20 08:40:01;;;;;;;13.43;10.15;;;;;;;18.83;59.77;102204.75;5073945;28;20024;-34
2021/07/20 08:43:13;;;;;;;13.90;9.98;;;;;;;19.06;60.97;102214.66;5074798;28;20111;-34
2021/07/20 08:45:56;;;;;;;13.18;10.45;;;;;;;18.92;59.72;102213.38;5051415;28;20065;-34
2021/07/20 08:48:35;;;;;;;16.63;11.20;;;;;;;19.08;59.65;102217.13;5051555;28;20048;-34
2021/07/20 08:51:09;;;;;;;15.15;10.13;;;;;;;19.19;59.06;102207.97;5034896;28;20136;-36
2021/07/20 08:54:01;;;;;;;19.17;10.20;;;;;;;19.46;58.09;102213.47;5051900;28;20051;-37
2021/07/20 08:56:28;;;;;;;15.27;10.55;;;;;;;19.24;57.82;102206.13;5051479;28;20527;-37
2021/07/20 08:59:03;;;;;;;17.83;11.15;;;;;;;19.40;58.58;102215.34;5051403;28;20029;-37
2021/07/20 09:01:31;;;;;;;15.13;10.82;;;;;;;19.35;57.88;102206.22;5051357;28;20037;-37
2021/07/20 09:04:11;;;;;;;16.45;11.75;;;;;;;19.20;57.75;102215.09;5051535;28;20036;-37
2021/07/20 09:06:46;;;;;;;17.83;11.70;;;;;;;19.29;58.48;102214.41;5051221;28;20059;-37
2021/07/20 09:09:24;;;;;;;13.50;9.80;;;;;;;19.34;58.15;102202.66;5051922;28;20037;-37
2021/07/20 09:12:12;;;;;;;14.30;10.40;;;;;;;19.61;58.34;102210.94;5051350;28;20025;-37
2021/07/20 09:15:01;;;;;;;16.55;10.15;;;;;;;19.73;56.87;102208.06;5051377;28;20082;-37
2021/07/20 09:18:04;;;;;;;14.20;11.10;;;;;;;19.77;57.67;102203.69;5073389;28;20370;-37
2021/07/20 09:20:34;;;;;;;18.25;10.85;;;;;;;19.74;56.02;102207.78;5073505;28;20092;-37
2021/07/20 09:23:15;;;;;;;15.02;10.13;;;;;;;19.91;57.10;102188.47;5074224;28;20017;-37
2021/07/20 09:25:56;;;;;;;15.27;10.60;;;;;;;19.78;54.68;102206.19;5073010;28;20107;-37
2021/07/20 09:28:45;;;;;;;12.85;9.52;;;;;;;20.15;56.31;102210.06;5073679;28;20047;-37
2021/07/20 09:31:30;;;;;;;13.30;9.45;;;;;;;20.12;55.21;102219.66;5072943;28;20099;-37
2021/07/20 09:34:22;;;;;;;14.18;9.40;;;;;;;20.33;57.86;102204.97;5073636;28;20020;-37
2021/07/20 09:37:01;;;;;;;13.43;9.70;;;;;;;20.10;56.92;102208.09;5070090;28;20030;-37
2021/07/20 09:39:47;;;;;;;15.68;9.80;;;;;;;20.14;55.37;102209.22;5073543;28;20051;-37
2021/07/20 09:42:29;;;;;;;13.45;9.60;;;;;;;20.10;55.12;102208.09;5074013;28;20020;-37
2021/07/20 09:45:03;;;;;;;15.70;10.07;;;;;;;20.44;54.90;102208.63;5072482;28;20017;-37
2021/07/20 09:47:53;;;;;;;12.82;9.90;;;;;;;20.23;53.95;102182.94;5073511;28;20449;-37
2021/07/20 09:50:19;;;;;;;13.43;10.10;;;;;;;20.44;54.04;102194.88;5073092;28;20013;-37
2021/07/20 09:53:16;;;;;;;14.32;10.25;;;;;;;20.61;54.67;102197.53;5073281;28;20074;-36
2021/07/20 09:55:52;;;;;;;13.95;9.95;;;;;;;20.47;53.44;102193.59;5073649;28;20032;-37
2021/07/20 09:58:36;;;;;;;14.07;10.27;;;;;;;20.60;56.48;102195.88;5073022;28;20021;-34
2021/07/20 10:01:15;;;;;;;13.05;9.88;;;;;;;20.67;53.81;102201.13;5073215;28;20483;-34
2021/07/20 10:03:48;;;;;;;12.63;9.93;;;;;;;20.71;54.91;102196.75;5072572;28;20479;-34
2021/07/20 10:06:43;;;;;;;13.18;9.50;;;;;;;20.72;52.26;102198.41;5073249;28;20024;-34
2021/07/20 10:09:15;;;;;;;14.25;10.13;;;;;;;20.76;52.83;102196.78;5072781;28;20020;-34
2021/07/20 10:11:53;;;;;;;15.30;9.57;;;;;;;20.82;53.41;102190.19;5073521;28;20043;-34
2021/07/20 10:14:27;;;;;;;13.55;9.48;;;;;;;21.15;53.17;102193.66;5072627;28;20033;-35
2021/07/20 10:17:07;;;;;;;13.45;10.20;;;;;;;21.37;53.55;102194.28;5072641;28;20032;-34
2021/07/20 10:19:44;;;;;;;14.95;10.68;;;;;;;21.17;51.81;102192.28;5073009;28;20027;-34
2021/07/20 10:22:11;;;;;;;;;;;;;;;21.46;53.45;102192.66;5073103;28;20024;-34
2021/07/20 10:24:42;;;;;;;13.15;9.50;;;;;;;21.32;51.76;102191.53;5072709;28;20245;-34
2021/07/20 10:27:15;;;;;;;16.50;10.10;;;;;;;21.44;51.13;102181.13;5072901;28;20029;-37
2021/07/20 10:29:59;;;;;;;13.70;9.93;;;;;;;21.71;52.13;102178.13;5072985;28;20025;-37
2021/07/20 10:32:37;;;;;;;16.55;11.15;;;;;;;21.47;51.08;102188.00;5072923;28;20059;-37
2021/07/20 10:35:07;;;;;;;12.32;9.40;;;;;;;21.32;52.16;102180.53;5073271;28;20360;-37
2021/07/20 10:37:39;;;;;;;14.85;10.18;;;;;;;20.97;50.86;102183.94;5073056;28;20032;-37
2021/07/20 10:40:16;;;;;;;12.32;9.88;;;;;;;21.11;53.49;102185.09;5072697;28;20035;-37
2021/07/20 10:42:50;;;;;;;12.63;9.75;;;;;;;21.31;52.50;102181.63;5072942;28;20027;-37
2021/07/20 10:45:17;;;;;;;15.20;9.93;;;;;;;21.52;52.77;102180.59;5072746;28;20131;-37
2021/07/20 10:47:50;;;;;;;16.05;10.75;;;;;;;21.51;50.97;102180.84;5072582;28;20036;-37
2021/07/20 10:50:41;;;;;;;15.18;10.50;;;;;;;21.62;51.31;102184.44;5072556;28;20044;-37
2021/07/20 10:53:28;;;;;;;13.95;9.77;;;;;;;21.70;50.21;102175.66;5050114;28;20143;-37
2021/07/20 10:55:53;;;;;;;12.80;9.77;;;;;;;21.78;49.44;102184.19;5052800;28;20025;-37
2021/07/20 10:58:34;;;;;;;13.52;10.15;;;;;;;21.78;50.22;102173.19;5053540;28;20044;-37
2021/07/20 11:01:08;;;;;;;13.48;9.70;;;;;;;21.91;50.51;102182.00;5053567;28;20040;-37
2021/07/20 11:03:42;;;;;;;10.82;8.90;;;;;;;21.74;50.61;102172.06;5054106;28;20423;-37
2021/07/20 11:06:10;;;;;;;12.98;9.77;;;;;;;21.83;48.72;102175.13;5053656;28;20121;-37
2021/07/20 11:08:41;;;;;;;14.23;9.68;;;;;;;21.56;48.61;102178.09;5053412;28;20044;-37
2021/07/20 11:11:08;;;;;;;16.98;9.55;;;;;;;21.70;48.53;102167.38;5053382;28;20140;-37
2021/07/20 11:13:37;;;;;;;14.02;8.73;;;;;;;21.95;52.29;102175.66;5053535;28;20029;-37
2021/07/20 11:16:15;;;;;;;16.25;10.52;;;;;;;21.98;48.60;102166.84;5053390;28;20035;-37
2021/07/20 11:18:41;;;;;;;13.35;9.60;;;;;;;22.34;52.57;102159.41;5053834;28;20029;-37
2021/07/20 11:21:11;;;;;;;14.50;9.90;;;;;;;22.08;49.61;102158.59;5053879;28;20133;-37
2021/07/20 11:23:39;;;;;;;11.80;9.52;;;;;;;22.14;48.46;102155.84;5053228;28;20032;-37
2021/07/20 11:26:07;;;;;;;12.15;8.95;;;;;;;21.93;49.17;102155.03;5053013;28;20029;-37
2021/07/20 11:28:33;;;;;;;15.07;10.18;;;;;;;22.28;50.49;102165.22;5053460;28;20032;-37
2021/07/20 11:31:02;;;;;;;15.80;9.05;;;;;;;22.24;48.26;102167.69;5072694;28;20036;-37